Terminal Aerodrome Forecast
Issued by NWS

Current Version | Previous Version | Text Only | Print | Product List | Glossary On
Versions: 1 2 3 4 5 6 7 8 9 10 11
513
FTUS46 KSGX 280520
TAFTRM
TAF
KTRM 280520Z 2806/2906 34012G20KT P6SM SCT250
     FM280900 33007KT P6SM SCT250
     FM281600 35011G20KT P6SM SCT250=

USA.gov is the U.S. government's official web portal to all federal, state and local government web resources and services.